createdAt,value
2022-10-12T00:00:28.771Z,5.20
2022-10-12T00:03:17.156Z,5.22
2022-10-12T00:06:08.940Z,5.29
2022-10-12T00:08:56.974Z,5.31
2022-10-12T00:11:44.830Z,5.30
2022-10-12T00:14:37.087Z,5.23
2022-10-12T00:17:24.931Z,5.16
2022-10-12T00:20:12.840Z,5.18
2022-10-12T00:23:00.795Z,5.13
2022-10-12T00:25:48.663Z,5.09
2022-10-12T00:28:36.885Z,5.14
2022-10-12T00:31:25.208Z,5.24
2022-10-12T00:34:12.797Z,5.28
2022-10-12T00:37:00.634Z,5.31
2022-10-12T00:39:48.760Z,5.29
2022-10-12T00:42:36.563Z,5.19
2022-10-12T00:45:26.175Z,5.15
2022-10-12T00:48:14.254Z,5.12
2022-10-12T00:51:02.908Z,5.06
2022-10-12T00:53:57.517Z,5.04
2022-10-12T00:56:48.762Z,5.06
2022-10-12T01:00:06.184Z,4.98
2022-10-12T01:02:55.037Z,4.88
2022-10-12T01:05:43.833Z,4.82
2022-10-12T01:08:31.797Z,4.76
2022-10-12T01:11:19.621Z,4.70
2022-10-12T01:14:08.369Z,4.62
2022-10-12T01:17:09.553Z,4.59
2022-10-12T01:20:22.580Z,4.54
2022-10-12T01:23:28.912Z,4.48
2022-10-12T01:26:19.671Z,4.42
2022-10-12T01:29:43.118Z,4.39
2022-10-12T01:32:45.939Z,4.33
2022-10-12T01:35:43.717Z,4.23
2022-10-12T01:38:54.426Z,4.23
2022-10-12T01:41:48.823Z,4.24
2022-10-12T01:44:41.927Z,4.25
2022-10-12T01:47:31.746Z,4.34
2022-10-12T01:50:22.126Z,4.50
2022-10-12T01:53:09.706Z,4.57
2022-10-12T01:56:22.830Z,4.58
2022-10-12T01:59:28.061Z,4.41
2022-10-12T02:02:28.318Z,4.42
2022-10-12T02:05:23.736Z,4.40
2022-10-12T02:08:33.732Z,4.33
2022-10-12T02:11:24.266Z,4.25
2022-10-12T02:14:21.679Z,4.22
2022-10-12T02:17:13.429Z,4.27
2022-10-12T02:20:02.645Z,4.32
2022-10-12T02:22:52.083Z,4.29
2022-10-12T02:25:41.196Z,4.23
2022-10-12T02:28:32.587Z,4.27
2022-10-12T02:31:52.686Z,4.37
2022-10-12T02:34:55.567Z,4.30
2022-10-12T02:37:48.756Z,4.30
2022-10-12T02:40:54.403Z,4.40
2022-10-12T02:43:56.058Z,4.47
2022-10-12T02:46:46.445Z,4.55
2022-10-12T02:49:36.384Z,4.58
2022-10-12T02:52:25.116Z,4.57
2022-10-12T02:55:13.042Z,4.54
2022-10-12T02:58:00.704Z,4.56
2022-10-12T03:00:48.779Z,4.67
2022-10-12T03:03:36.664Z,4.63
2022-10-12T03:06:24.493Z,4.57
2022-10-12T03:09:12.302Z,4.51
2022-10-12T03:12:00.303Z,4.48
2022-10-12T03:14:48.134Z,4.50
2022-10-12T03:17:36.171Z,4.52
2022-10-12T03:20:24.092Z,4.57
2022-10-12T03:23:11.779Z,4.61
2022-10-12T03:25:59.779Z,4.63
2022-10-12T03:28:47.580Z,4.67
2022-10-12T03:31:35.169Z,4.66
2022-10-12T03:34:23.107Z,4.69
2022-10-12T03:37:11.237Z,4.80
2022-10-12T03:39:58.883Z,4.88
2022-10-12T03:42:46.900Z,4.92
2022-10-12T03:45:35.091Z,4.99
2022-10-12T03:48:23.134Z,5.07
2022-10-12T03:51:10.992Z,5.13
2022-10-12T03:53:58.562Z,5.16
2022-10-12T03:56:46.129Z,5.16
2022-10-12T03:59:34.040Z,5.11
2022-10-12T04:02:22.257Z,5.04
2022-10-12T04:05:10.171Z,5.03
2022-10-12T04:07:58.497Z,5.02
2022-10-12T04:10:46.461Z,5.09
2022-10-12T04:13:34.337Z,5.18
2022-10-12T04:16:24.095Z,5.29
2022-10-12T04:19:14.743Z,5.45
2022-10-12T04:22:02.310Z,5.63
2022-10-12T04:24:50.700Z,5.78
2022-10-12T04:27:38.495Z,5.92
2022-10-12T04:30:26.749Z,6.08
2022-10-12T04:33:14.942Z,6.29
2022-10-12T04:36:02.776Z,6.48
2022-10-12T04:38:51.027Z,6.71
2022-10-12T04:41:40.419Z,6.93
2022-10-12T04:44:32.136Z,7.14
2022-10-12T04:47:20.527Z,7.36
2022-10-12T04:50:08.893Z,7.57
2022-10-12T04:52:56.741Z,7.77
2022-10-12T04:55:44.445Z,7.97
2022-10-12T04:58:33.205Z,8.11
2022-10-12T05:01:21.359Z,8.25
2022-10-12T05:04:08.922Z,8.34
2022-10-12T05:06:57.025Z,8.40
2022-10-12T05:09:44.643Z,8.44
2022-10-12T05:12:32.227Z,8.52
2022-10-12T05:15:20.761Z,8.64
2022-10-12T05:18:08.750Z,8.75
2022-10-12T05:20:57.304Z,8.84
2022-10-12T05:23:45.286Z,8.93
2022-10-12T05:26:33.463Z,9.00
2022-10-12T05:29:21.115Z,9.04
2022-10-12T05:32:08.906Z,9.03
2022-10-12T05:34:57.044Z,9.02
2022-10-12T05:37:44.793Z,9.01
2022-10-12T05:40:32.767Z,9.03
2022-10-12T05:43:20.835Z,9.11
2022-10-12T05:46:13.557Z,9.19
2022-10-12T05:49:02.710Z,9.35
2022-10-12T05:51:50.397Z,9.58
2022-10-12T05:54:39.048Z,9.75
2022-10-12T05:57:26.641Z,10.01
2022-10-12T06:00:14.792Z,10.27
2022-10-12T06:03:03.020Z,10.42
2022-10-12T06:05:51.102Z,10.47
2022-10-12T06:08:39.239Z,10.41
2022-10-12T06:11:28.601Z,10.37
2022-10-12T06:14:18.185Z,10.40
2022-10-12T06:17:05.876Z,10.43
2022-10-12T06:19:54.014Z,10.31
2022-10-12T06:22:41.776Z,10.14
2022-10-12T06:25:29.683Z,9.97
2022-10-12T06:28:20.450Z,9.84
2022-10-12T06:31:08.098Z,9.70
2022-10-12T06:33:55.986Z,9.61
2022-10-12T06:36:44.023Z,9.62
2022-10-12T06:39:32.378Z,9.63
2022-10-12T06:42:19.967Z,9.66
2022-10-12T06:45:11.256Z,9.65
2022-10-12T06:47:58.882Z,9.68
2022-10-12T06:50:47.230Z,9.71
2022-10-12T06:53:35.219Z,9.75
2022-10-12T06:56:23.386Z,9.75
2022-10-12T06:59:14.142Z,9.76
2022-10-12T07:02:01.944Z,9.73
2022-10-12T07:04:53.830Z,9.76
2022-10-12T07:07:41.676Z,9.78
2022-10-12T07:10:29.832Z,9.85
2022-10-12T07:13:17.671Z,9.93
2022-10-12T07:16:05.524Z,9.98
2022-10-12T07:18:53.888Z,10.05
2022-10-12T07:21:41.502Z,10.12
2022-10-12T07:24:36.552Z,10.24
2022-10-12T07:27:24.155Z,10.34
2022-10-12T07:30:13.112Z,10.47
2022-10-12T07:33:00.946Z,10.63
2022-10-12T07:36:13.381Z,10.77
2022-10-12T07:39:02.506Z,11.01
2022-10-12T07:41:51.452Z,11.25
2022-10-12T07:44:39.388Z,11.50
2022-10-12T07:47:27.270Z,11.69
2022-10-12T07:50:16.002Z,11.97
2022-10-12T07:53:03.835Z,12.32
2022-10-12T07:55:52.249Z,12.71
2022-10-12T07:58:40.150Z,12.96
2022-10-12T08:01:30.269Z,13.21
2022-10-12T08:04:18.208Z,13.52
2022-10-12T08:07:06.053Z,13.78
2022-10-12T08:09:54.079Z,13.87
2022-10-12T08:12:41.954Z,13.89
2022-10-12T08:15:29.952Z,13.88
2022-10-12T08:18:17.786Z,13.86
2022-10-12T08:21:07.596Z,13.99
2022-10-12T08:23:55.511Z,14.05
2022-10-12T08:26:43.645Z,14.18
2022-10-12T08:29:31.462Z,14.27
2022-10-12T08:32:19.605Z,14.27
2022-10-12T08:35:07.472Z,14.13
2022-10-12T08:37:55.084Z,14.13
2022-10-12T08:40:54.945Z,14.19
2022-10-12T08:44:05.001Z,14.20
2022-10-12T08:47:18.132Z,14.08
2022-10-12T08:50:10.632Z,13.94
2022-10-12T08:53:16.013Z,13.78
2022-10-12T08:56:03.905Z,13.77
2022-10-12T08:58:53.163Z,13.77
2022-10-12T09:02:02.029Z,13.96
2022-10-12T09:04:49.874Z,14.05
2022-10-12T09:07:44.314Z,14.23
2022-10-12T09:10:47.318Z,14.16
2022-10-12T09:13:52.063Z,14.11
2022-10-12T09:16:44.783Z,14.08
2022-10-12T09:19:41.387Z,14.19
2022-10-12T09:22:31.082Z,14.30
2022-10-12T09:25:27.042Z,14.33
2022-10-12T09:28:41.272Z,14.36
2022-10-12T09:31:41.345Z,14.36
2022-10-12T09:34:29.250Z,14.39
2022-10-12T09:37:28.312Z,14.45
2022-10-12T09:40:26.467Z,14.58
2022-10-12T09:43:14.770Z,14.62
2022-10-12T09:46:06.835Z,14.61
2022-10-12T09:48:59.593Z,14.62
2022-10-12T09:51:47.328Z,14.74
2022-10-12T09:54:35.688Z,14.62
2022-10-12T09:57:31.362Z,14.58
2022-10-12T10:00:31.483Z,14.54
2022-10-12T10:03:30.606Z,14.56
2022-10-12T10:06:26.233Z,14.56
2022-10-12T10:09:32.011Z,14.66
2022-10-12T10:12:29.485Z,14.57
2022-10-12T10:15:38.875Z,14.35
2022-10-12T10:18:38.726Z,14.21
2022-10-12T10:21:29.353Z,14.13
2022-10-12T10:24:28.611Z,14.18
2022-10-12T10:27:40.269Z,14.18
2022-10-12T10:30:39.628Z,14.24
2022-10-12T10:33:34.309Z,14.26
2022-10-12T10:36:25.140Z,14.32
2022-10-12T10:39:29.235Z,14.40
2022-10-12T10:42:24.897Z,14.36
2022-10-12T10:45:23.679Z,14.33
2022-10-12T10:48:18.218Z,14.39
2022-10-12T10:51:07.551Z,14.38
2022-10-12T10:53:56.622Z,14.47
2022-10-12T10:56:47.077Z,14.43
2022-10-12T11:00:26.055Z,14.42
2022-10-12T11:03:13.585Z,14.38
2022-10-12T11:06:11.757Z,14.46
2022-10-12T11:09:06.916Z,14.39
2022-10-12T11:12:00.708Z,14.08
2022-10-12T11:14:52.251Z,13.82
2022-10-12T11:17:47.250Z,13.59
2022-10-12T11:20:45.521Z,13.45
2022-10-12T11:23:39.330Z,13.42
2022-10-12T11:26:35.608Z,13.41
2022-10-12T11:29:23.898Z,13.64
2022-10-12T11:32:23.327Z,13.93
2022-10-12T11:35:41.194Z,14.21
2022-10-12T11:38:45.020Z,14.44
2022-10-12T11:42:03.273Z,14.60
2022-10-12T11:44:55.092Z,14.65
2022-10-12T11:47:47.228Z,14.64
2022-10-12T11:50:37.421Z,14.48
2022-10-12T11:53:28.507Z,14.19
2022-10-12T11:56:26.135Z,13.93
2022-10-12T11:59:24.632Z,13.75
2022-10-12T12:02:34.567Z,13.74
2022-10-12T12:05:26.192Z,13.52
2022-10-12T12:08:55.378Z,13.45
2022-10-12T12:11:43.461Z,13.54
2022-10-12T12:14:31.422Z,13.48
2022-10-12T12:17:19.318Z,13.45
2022-10-12T12:20:44.852Z,13.34
2022-10-12T12:23:42.699Z,13.16
2022-10-12T12:26:31.076Z,12.98
2022-10-12T12:29:29.833Z,12.85
2022-10-12T12:32:20.092Z,12.86
2022-10-12T12:35:30.012Z,12.86
2022-10-12T12:38:24.144Z,12.76
2022-10-12T12:41:20.216Z,12.74
2022-10-12T12:44:33.751Z,12.64
2022-10-12T12:47:45.471Z,12.45
2022-10-12T12:50:39.820Z,12.24
2022-10-12T12:53:31.011Z,12.07
2022-10-12T12:56:48.219Z,11.83
2022-10-12T13:00:04.486Z,11.76
2022-10-12T13:03:19.885Z,11.74
2022-10-12T13:06:28.934Z,11.66
2022-10-12T13:09:16.822Z,11.58
2022-10-12T13:12:23.090Z,11.53
2022-10-12T13:15:21.189Z,11.50
2022-10-12T13:18:45.966Z,11.48
